Aviation Digital Data Service (ADDS)

Output produced by METARs form (1034 UTC 21 January 2018)
found at http://aviationweather.gov/adds/metars/
 
KAND 210529Z 2106/2206 00000KT P6SM FEW250 
     FM211100 VRB02KT 6SM BR FEW120 
     FM211500 22004KT P6SM FEW250 
     FM220500 00000KT P6SM FEW250